Time;durP1;ratioP1;P1;durP2;ratioP2;P2;SDS_P1;SDS_P2;PMS_P1;PMS_P2;Temp;Humidity;BMP_temperature;BMP_pressure;BME280_temperature;BME280_humidity;BME280_pressure;Samples;Min_cycle;Max_cycle;Signal;HPM_P1;HPM_P2
2021/05/08 00:00:27;;;;;;;6.05;2.80;;;;;;;17.79;56.95;99797.06;5030024;28;20038;-70
2021/05/08 00:02:52;;;;;;;6.28;2.92;;;;;;;17.86;56.72;99781.38;5030141;28;20038;-71
2021/05/08 00:05:18;;;;;;;5.20;2.95;;;;;;;18.01;56.47;99786.56;5029900;28;20030;-72
2021/05/08 00:07:44;;;;;;;6.82;2.60;;;;;;;17.92;56.46;99790.03;5013233;28;20052;-71
2021/05/08 00:10:15;;;;;;;6.65;2.60;;;;;;;18.01;56.73;99803.97;5030452;28;20026;-71
2021/05/08 00:12:41;;;;;;;4.95;2.42;;;;;;;18.00;55.98;99795.25;5030183;28;20083;-71
2021/05/08 00:15:10;;;;;;;5.35;2.80;;;;;;;18.03;56.66;99810.03;5030356;28;20511;-71
2021/05/08 00:17:35;;;;;;;4.07;2.55;;;;;;;17.89;56.52;99803.09;5027404;28;20488;-70
2021/05/08 00:20:01;;;;;;;8.32;3.10;;;;;;;17.81;56.81;99789.22;5029980;28;20040;-70
2021/05/08 00:22:26;;;;;;;5.72;3.22;;;;;;;17.91;56.74;99800.50;5030070;28;20041;-74
2021/05/08 00:24:51;;;;;;;8.48;2.67;;;;;;;17.68;56.90;99759.66;5030097;28;20057;-71
2021/05/08 00:27:17;;;;;;;6.70;2.92;;;;;;;17.99;56.88;99803.97;5029795;28;20531;-71
2021/05/08 00:29:42;;;;;;;8.70;2.83;;;;;;;17.89;56.92;99804.84;5016083;28;20045;-75
2021/05/08 00:32:08;;;;;;;6.45;2.85;;;;;;;17.70;56.49;99768.38;5012439;28;20057;-75
2021/05/08 00:34:33;;;;;;;6.47;2.60;;;;;;;18.01;56.46;99806.59;5012818;28;20029;-70
2021/05/08 00:36:59;;;;;;;6.07;2.65;;;;;;;18.10;56.34;99806.53;5012541;28;20137;-73
2021/05/08 00:39:24;;;;;;;4.72;2.55;;;;;;;18.11;55.88;99816.97;5012691;28;20022;-71
2021/05/08 00:41:51;;;;;;;8.77;3.55;;;;;;;17.94;57.10;99826.63;5012551;28;20030;-71
2021/05/08 00:44:16;;;;;;;11.27;3.10;;;;;;;17.42;56.76;99797.16;5012708;28;20440;-74
2021/05/08 00:46:42;;;;;;;10.00;3.25;;;;;;;17.55;56.91;99826.69;5012603;28;20088;-73
2021/05/08 00:49:08;;;;;;;6.88;2.85;;;;;;;17.52;57.06;99842.38;5011853;28;20041;-70
2021/05/08 00:51:33;;;;;;;6.88;3.00;;;;;;;17.32;57.71;99834.59;5012484;28;20038;-71
2021/05/08 00:53:59;;;;;;;7.13;3.42;;;;;;;17.38;57.89;99841.50;5026491;28;20034;-70
2021/05/08 00:56:25;;;;;;;8.20;3.15;;;;;;;17.43;57.66;99844.97;5012158;28;20076;-70
2021/05/08 00:58:52;;;;;;;6.32;3.10;;;;;;;17.35;58.50;99839.78;5011980;28;20508;-72
2021/05/08 01:01:17;;;;;;;15.00;3.78;;;;;;;17.23;58.52;99831.97;5012347;28;20520;-70
2021/05/08 01:03:44;;;;;;;7.72;3.30;;;;;;;17.30;58.23;99836.31;5012285;28;20034;-70
2021/05/08 01:06:10;;;;;;;5.65;2.95;;;;;;;17.28;58.26;99836.31;5012268;28;20033;-71
2021/05/08 01:08:36;;;;;;;7.00;3.00;;;;;;;17.32;58.44;99837.19;5012152;28;20022;-71
2021/05/08 01:11:02;;;;;;;7.70;2.97;;;;;;;17.38;58.19;99838.91;5012275;28;20034;-71
2021/05/08 01:13:28;;;;;;;8.98;3.00;;;;;;;17.39;58.19;99830.22;5012112;28;20161;-71
2021/05/08 01:15:54;;;;;;;6.97;2.63;;;;;;;17.37;58.09;99837.16;5012200;28;20163;-71
2021/05/08 01:18:20;;;;;;;5.57;3.00;;;;;;;17.37;58.20;99845.00;5011626;28;20118;-75
2021/05/08 01:20:46;;;;;;;7.00;2.92;;;;;;;17.37;58.43;99845.00;5011923;28;20571;-71
2021/05/08 01:23:11;;;;;;;9.55;3.13;;;;;;;17.39;58.34;99841.50;5012035;28;20026;-70
2021/05/08 01:25:36;;;;;;;5.03;2.20;;;;;;;17.24;59.17;99841.53;5010580;28;20038;-73
2021/05/08 01:28:02;;;;;;;4.40;2.50;;;;;;;17.22;59.49;99831.09;5012167;28;20022;-70
2021/05/08 01:30:33;;;;;;;5.38;2.60;;;;;;;17.27;59.60;99829.34;5011867;28;20037;-71
2021/05/08 01:32:59;;;;;;;6.53;2.42;;;;;;;17.24;59.61;99833.72;5012036;28;20542;-71
2021/05/08 01:35:29;;;;;;;6.93;2.72;;;;;;;17.25;59.16;99825.88;5011808;28;20388;-70
2021/05/08 01:37:55;;;;;;;4.82;2.50;;;;;;;17.22;59.17;99823.28;5011456;28;20038;-72
2021/05/08 01:40:27;;;;;;;7.30;3.08;;;;;;;17.12;59.42;99827.63;5011907;28;20029;-70
2021/05/08 01:42:53;;;;;;;7.40;3.05;;;;;;;16.87;59.18;99784.97;5011985;28;20112;-71
2021/05/08 01:45:20;;;;;;;6.38;2.90;;;;;;;16.74;60.01;99822.34;5011531;28;20029;-70
2021/05/08 01:47:46;;;;;;;6.40;2.70;;;;;;;15.99;62.50;99824.75;5011566;28;20026;-71
2021/05/08 01:50:14;;;;;;;8.60;3.50;;;;;;;15.66;63.96;99836.72;5011628;28;20547;-71
2021/05/08 01:52:41;;;;;;;6.90;3.38;;;;;;;15.54;63.79;99836.63;5025595;28;20065;-71
2021/05/08 01:55:13;;;;;;;8.65;3.70;;;;;;;15.25;64.04;99834.66;5025995;28;20046;-70
2021/05/08 01:57:48;;;;;;;8.75;3.35;;;;;;;14.91;65.52;99844.78;5011585;28;20030;-73
2021/05/08 02:00:25;;;;;;;8.35;3.70;;;;;;;14.97;65.36;99846.59;5013013;28;20030;-70
2021/05/08 02:02:52;;;;;;;7.50;2.90;;;;;;;15.27;64.57;99848.56;5015609;28;20037;-71
2021/05/08 02:05:19;;;;;;;7.80;3.70;;;;;;;15.46;64.04;99856.50;5015399;28;20028;-70
2021/05/08 02:07:44;;;;;;;6.60;3.35;;;;;;;15.65;63.44;99858.38;5015694;28;20427;-70
2021/05/08 02:10:13;;;;;;;6.25;3.17;;;;;;;15.78;62.74;99864.50;5015487;28;20030;-70
2021/05/08 02:12:38;;;;;;;14.25;3.53;;;;;;;15.90;62.02;99873.28;5015271;28;20046;-73
2021/05/08 02:15:07;;;;;;;6.78;3.20;;;;;;;15.80;63.16;99874.94;5015232;28;20041;-73
2021/05/08 02:17:32;;;;;;;10.57;3.10;;;;;;;15.36;64.44;99825.25;5029107;28;20049;-70
2021/05/08 02:19:58;;;;;;;6.40;3.13;;;;;;;15.71;64.05;99880.09;5015282;28;20034;-70
2021/05/08 02:22:23;;;;;;;6.78;3.08;;;;;;;15.83;63.51;99877.59;5015366;28;20029;-73
2021/05/08 02:24:48;;;;;;;5.18;3.15;;;;;;;15.94;63.12;99877.66;5015265;28;20042;-71
2021/05/08 02:27:14;;;;;;;6.60;3.53;;;;;;;16.06;62.47;99884.66;5015262;28;20034;-69
2021/05/08 02:29:41;;;;;;;12.43;3.53;;;;;;;16.12;62.17;99882.94;5014561;28;20034;-73
2021/05/08 02:32:07;;;;;;;6.63;3.60;;;;;;;16.10;61.58;99878.59;5013917;28;20022;-71
2021/05/08 02:34:32;;;;;;;6.97;3.20;;;;;;;15.84;62.04;99868.94;5015126;28;20033;-71
2021/05/08 02:36:58;;;;;;;7.07;3.30;;;;;;;15.88;62.61;99882.84;5015071;28;20037;-70
2021/05/08 02:39:23;;;;;;;5.50;2.58;;;;;;;15.72;63.40;99892.25;5015098;28;20039;-71
2021/05/08 02:41:48;;;;;;;8.05;3.40;;;;;;;15.29;65.75;99877.19;5014888;28;20030;-69
2021/05/08 02:44:14;;;;;;;9.65;3.90;;;;;;;15.31;66.23;99867.66;5013473;28;20037;-70
2021/05/08 02:46:39;;;;;;;11.45;3.35;;;;;;;15.35;66.08;99867.72;5014660;28;20037;-72
2021/05/08 02:49:05;;;;;;;7.53;3.60;;;;;;;15.05;66.41;99834.50;5014474;28;20026;-75
2021/05/08 02:51:30;;;;;;;6.13;3.28;;;;;;;15.28;66.46;99881.50;5014594;28;20061;-70
2021/05/08 02:53:55;;;;;;;7.68;3.20;;;;;;;15.33;66.10;99886.75;5014445;28;20041;-71
2021/05/08 02:56:21;;;;;;;11.50;4.13;;;;;;;15.51;65.71;99899.03;5014553;28;20030;-70
2021/05/08 02:58:46;;;;;;;17.15;4.60;;;;;;;15.34;64.99;99858.16;5014508;28;20034;-70
2021/05/08 03:01:12;;;;;;;10.02;3.40;;;;;;;15.68;64.34;99904.38;5012205;28;20032;-73
2021/05/08 03:03:37;;;;;;;24.35;4.03;;;;;;;15.65;64.40;99902.63;5014446;28;20036;-71
2021/05/08 03:06:04;;;;;;;10.23;3.88;;;;;;;15.53;64.67;99900.78;5014527;28;20026;-71
2021/05/08 03:08:29;;;;;;;7.43;3.17;;;;;;;15.62;64.08;99912.97;5014480;28;20395;-70
2021/05/08 03:10:55;;;;;;;14.50;4.13;;;;;;;15.65;63.74;99915.63;5011156;28;20046;-70
2021/05/08 03:13:20;;;;;;;7.38;3.38;;;;;;;15.72;63.70;99928.69;5013896;28;20374;-71
2021/05/08 03:15:46;;;;;;;8.32;3.30;;;;;;;15.62;64.01;99964.16;5014366;28;20420;-70
2021/05/08 03:18:11;;;;;;;11.63;4.15;;;;;;;14.68;67.38;99997.88;5013967;28;20057;-70
2021/05/08 03:20:37;;;;;;;7.93;3.95;;;;;;;14.21;68.75;99965.19;5013759;28;20029;-75
2021/05/08 03:23:02;;;;;;;8.68;4.63;;;;;;;14.05;69.08;99993.50;5014010;28;20029;-70
2021/05/08 03:25:27;;;;;;;7.63;4.50;;;;;;;14.34;70.14;99992.19;5013981;28;20391;-70
2021/05/08 03:27:53;;;;;;;11.45;5.15;;;;;;;14.37;70.41;100018.22;5013851;28;20026;-71
2021/05/08 03:30:19;;;;;;;9.77;4.55;;;;;;;14.42;70.13;100026.03;5013993;28;20109;-70
2021/05/08 03:32:44;;;;;;;10.40;4.38;;;;;;;14.52;70.61;100027.94;5013894;28;20030;-70
2021/05/08 03:35:10;;;;;;;8.52;4.55;;;;;;;14.69;70.15;100026.47;5014231;28;20087;-69
2021/05/08 03:37:35;;;;;;;9.07;4.60;;;;;;;14.83;69.86;100029.25;5013443;28;20033;-73
2021/05/08 03:40:01;;;;;;;8.30;3.83;;;;;;;14.64;69.63;99981.34;5013640;28;20053;-70
2021/05/08 03:42:26;;;;;;;10.20;4.63;;;;;;;14.81;69.50;99994.56;5013263;28;20068;-70
2021/05/08 03:44:52;;;;;;;13.75;5.30;;;;;;;15.07;69.22;100011.31;5013418;28;20033;-71
2021/05/08 03:47:17;;;;;;;13.18;5.75;;;;;;;15.23;68.80;100025.34;5013466;28;20038;-73
2021/05/08 03:49:43;;;;;;;16.75;6.07;;;;;;;15.26;69.10;100031.44;5013622;28;20095;-72
2021/05/08 03:52:08;;;;;;;17.92;5.80;;;;;;;15.34;68.83;100045.41;5013535;28;20061;-70
2021/05/08 03:54:36;;;;;;;24.33;7.32;;;;;;;15.50;68.79;100033.44;5013517;28;20064;-70
2021/05/08 03:57:01;;;;;;;24.30;7.70;;;;;;;15.61;68.39;100040.47;5013143;28;20389;-71
2021/05/08 03:59:27;;;;;;;25.63;7.18;;;;;;;15.72;68.18;100044.03;5013697;28;20030;-71
2021/05/08 04:01:53;;;;;;;22.92;6.72;;;;;;;15.82;67.91;100060.66;5013350;28;20041;-70
2021/05/08 04:04:18;;;;;;;22.33;6.22;;;;;;;15.72;68.17;100041.44;5011911;28;20033;-70
2021/05/08 04:06:43;;;;;;;18.20;5.95;;;;;;;15.09;69.40;100020.88;5012732;28;20057;-74
2021/05/08 04:09:10;;;;;;;19.20;6.15;;;;;;;14.98;69.72;100023.34;5012981;28;20061;-71
2021/05/08 04:11:36;;;;;;;18.60;4.95;;;;;;;15.37;69.13;100062.78;5012991;28;20042;-70
2021/05/08 04:14:02;;;;;;;13.50;5.25;;;;;;;15.52;68.91;100062.06;5013192;28;20030;-70
2021/05/08 04:16:28;;;;;;;20.35;6.57;;;;;;;15.34;69.59;100027.22;5012941;28;20440;-71
2021/05/08 04:18:53;;;;;;;16.42;6.45;;;;;;;15.46;69.45;100062.88;5011787;28;20068;-71
2021/05/08 04:21:19;;;;;;;20.90;6.20;;;;;;;15.53;69.19;100075.09;5012674;28;20032;-70
2021/05/08 04:23:44;;;;;;;15.02;5.82;;;;;;;15.45;68.60;100037.75;5012700;28;20373;-70
2021/05/08 04:26:09;;;;;;;15.18;5.50;;;;;;;15.80;68.00;100086.66;5012951;28;20439;-69
2021/05/08 04:28:35;;;;;;;9.93;5.00;;;;;;;15.81;67.98;100091.00;5012555;28;20057;-72
2021/05/08 04:31:00;;;;;;;15.95;6.45;;;;;;;15.80;68.21;100094.44;5011366;28;20038;-70
2021/05/08 04:33:26;;;;;;;19.98;6.15;;;;;;;15.90;67.69;100111.06;5012782;28;20108;-73
2021/05/08 04:35:51;;;;;;;12.25;5.03;;;;;;;15.87;66.97;100098.00;5012704;28;20392;-71
2021/05/08 04:38:17;;;;;;;14.30;5.80;;;;;;;15.78;67.07;100106.56;5012558;28;20034;-70
2021/05/08 04:40:42;;;;;;;14.90;6.05;;;;;;;15.39;68.73;100112.22;5012481;28;20468;-71
2021/05/08 04:43:08;;;;;;;20.50;6.43;;;;;;;15.25;69.34;100112.06;5012736;28;20033;-70
2021/05/08 04:45:34;;;;;;;17.70;6.00;;;;;;;15.45;68.56;100104.47;5012562;28;20475;-71
2021/05/08 04:47:59;;;;;;;15.13;6.35;;;;;;;15.48;68.12;100087.19;5012708;28;20546;-73
2021/05/08 04:50:26;;;;;;;22.48;6.53;;;;;;;15.71;67.74;100122.13;5012599;28;20030;-70
2021/05/08 04:52:52;;;;;;;14.43;7.32;;;;;;;15.82;67.55;100144.81;5012561;28;20034;-70
2021/05/08 04:55:18;;;;;;;23.38;6.80;;;;;;;15.88;67.34;100122.31;5012645;28;20037;-70
2021/05/08 04:57:44;;;;;;;18.77;6.50;;;;;;;15.96;67.19;100134.56;5012175;28;20033;-69
2021/05/08 05:00:13;;;;;;;18.65;6.38;;;;;;;16.01;67.56;100137.19;5012239;28;20026;-70
2021/05/08 05:02:42;;;;;;;12.38;5.25;;;;;;;15.82;67.83;100113.56;5012397;28;20061;-70
2021/05/08 05:05:10;;;;;;;18.92;6.13;;;;;;;15.99;68.23;100137.16;5012141;28;20032;-71
2021/05/08 05:07:35;;;;;;;15.20;5.22;;;;;;;16.09;68.46;100143.34;5010770;28;20034;-71
2021/05/08 05:10:01;;;;;;;13.55;5.35;;;;;;;16.06;69.20;100145.03;5011113;28;20037;-72
2021/05/08 05:12:26;;;;;;;11.30;5.55;;;;;;;16.15;68.39;100155.56;5011849;28;20460;-70
2021/05/08 05:14:52;;;;;;;18.35;6.05;;;;;;;16.21;68.46;100163.41;5011054;28;20026;-70
2021/05/08 05:17:18;;;;;;;12.88;6.18;;;;;;;16.22;68.64;100157.34;4975020;28;20054;-71
2021/05/08 05:19:43;;;;;;;13.25;5.78;;;;;;;16.28;68.63;100170.41;4992334;28;20022;-70
2021/05/08 05:22:09;;;;;;;14.15;6.50;;;;;;;16.29;69.34;100179.13;4992577;28;20034;-71
2021/05/08 05:24:34;;;;;;;12.05;5.70;;;;;;;16.26;68.80;100147.81;4992399;28;20058;-70
2021/05/08 05:26:59;;;;;;;12.55;5.47;;;;;;;16.56;68.62;100196.72;4991125;28;20030;-73
2021/05/08 05:29:25;;;;;;;14.50;5.93;;;;;;;16.43;69.68;100205.28;5011811;28;20021;-70
2021/05/08 05:31:51;;;;;;;29.85;7.18;;;;;;;16.43;69.99;100181.84;5011554;28;20025;-70
2021/05/08 05:34:18;;;;;;;20.40;6.18;;;;;;;16.73;70.56;100212.47;5011609;28;20388;-75
2021/05/08 05:36:43;;;;;;;14.90;5.88;;;;;;;16.93;70.62;100212.63;5011945;28;20381;-71
2021/05/08 05:39:08;;;;;;;16.45;6.03;;;;;;;16.72;70.43;100175.97;5011770;28;20037;-70
2021/05/08 05:41:34;;;;;;;13.30;6.10;;;;;;;16.76;70.23;100177.72;5011564;28;20026;-74
2021/05/08 05:44:01;;;;;;;12.40;6.00;;;;;;;17.13;69.90;100224.94;5026978;28;20500;-70
2021/05/08 05:46:27;;;;;;;11.77;6.30;;;;;;;17.23;69.94;100229.34;5012106;28;20030;-72
2021/05/08 05:48:52;;;;;;;10.15;5.57;;;;;;;17.08;69.71;100191.00;5012050;28;20393;-70
2021/05/08 05:51:18;;;;;;;11.85;5.95;;;;;;;17.21;69.46;100197.19;5012026;28;20026;-70
2021/05/08 05:53:44;;;;;;;14.02;6.07;;;;;;;17.54;69.36;100239.94;5011697;28;20026;-70
2021/05/08 05:56:09;;;;;;;10.65;4.97;;;;;;;17.61;69.50;100243.47;5011634;28;20404;-71
2021/05/08 05:58:35;;;;;;;9.75;5.30;;;;;;;17.79;66.88;100242.66;5011708;28;20025;-70
2021/05/08 06:01:00;;;;;;;11.82;5.07;;;;;;;17.82;67.04;100239.19;5011572;28;20476;-71
2021/05/08 06:03:26;;;;;;;7.43;4.72;;;;;;;17.74;66.56;100224.34;5010586;28;20068;-70
2021/05/08 06:05:51;;;;;;;10.77;4.95;;;;;;;17.62;67.48;100229.56;5011708;28;20026;-70
2021/05/08 06:08:17;;;;;;;9.32;5.00;;;;;;;17.99;66.63;100227.09;5011608;28;20118;-71
2021/05/08 06:10:42;;;;;;;10.80;4.82;;;;;;;18.34;64.04;100218.44;5011483;28;20022;-71
2021/05/08 06:13:08;;;;;;;11.90;4.07;;;;;;;18.54;60.56;100218.47;5011814;28;20068;-71
2021/05/08 06:15:33;;;;;;;10.65;4.18;;;;;;;18.50;60.32;100214.09;5011614;28;20029;-71
2021/05/08 06:17:59;;;;;;;14.75;3.80;;;;;;;18.40;58.20;100176.63;5011732;28;20458;-71
2021/05/08 06:20:24;;;;;;;12.48;3.80;;;;;;;18.77;56.71;100217.59;5011714;28;20456;-70
2021/05/08 06:22:50;;;;;;;9.57;4.13;;;;;;;18.86;56.08;100230.63;5011415;28;20030;-76
2021/05/08 06:25:16;;;;;;;8.60;3.80;;;;;;;18.50;56.31;100182.72;5026659;28;20026;-74
2021/05/08 06:27:41;;;;;;;16.00;4.55;;;;;;;18.72;58.74;100219.34;4993802;28;20168;-70
2021/05/08 06:30:08;;;;;;;8.85;4.10;;;;;;;18.90;59.38;100208.88;5011671;28;20396;-71
2021/05/08 06:32:33;;;;;;;7.75;4.05;;;;;;;18.89;59.00;100191.41;5026534;28;20030;-71
2021/05/08 06:34:59;;;;;;;6.53;3.90;;;;;;;19.29;58.86;100232.34;5011556;28;20022;-73
2021/05/08 06:37:24;;;;;;;9.65;4.45;;;;;;;19.45;57.58;100230.56;5009854;28;20034;-71
2021/05/08 06:39:50;;;;;;;7.15;4.25;;;;;;;19.43;58.16;100240.16;5010328;28;20499;-72
2021/05/08 06:42:15;;;;;;;13.05;3.90;;;;;;;19.53;56.50;100239.25;4994280;28;20100;-70
2021/05/08 06:44:41;;;;;;;5.38;3.67;;;;;;;19.44;56.46;100241.00;4991844;28;20061;-70
2021/05/08 06:47:13;;;;;;;10.70;3.90;;;;;;;19.53;55.75;100235.75;4994084;28;20069;-71
2021/05/08 06:49:39;;;;;;;9.23;4.30;;;;;;;19.44;55.74;100213.09;4997906;28;20067;-70
2021/05/08 06:52:05;;;;;;;7.60;3.50;;;;;;;19.50;56.41;100249.75;5014766;28;20049;-70
2021/05/08 06:54:30;;;;;;;10.65;3.90;;;;;;;19.40;56.06;100251.50;5014591;28;20030;-71
2021/05/08 06:56:55;;;;;;;8.25;4.00;;;;;;;19.25;57.13;100256.78;5014739;28;20033;-71
2021/05/08 06:59:21;;;;;;;8.85;3.83;;;;;;;19.36;56.85;100260.22;5014263;28;20030;-70
2021/05/08 07:01:46;;;;;;;10.98;4.45;;;;;;;19.43;56.65;100253.25;5001207;28;20033;-71
2021/05/08 07:04:12;;;;;;;10.40;3.75;;;;;;;19.27;56.89;100241.94;4994880;28;20037;-72
2021/05/08 07:06:37;;;;;;;7.05;4.10;;;;;;;19.28;56.42;100263.75;5009425;28;20034;-71
2021/05/08 07:09:03;;;;;;;11.73;4.35;;;;;;;19.37;56.79;100255.88;5014449;28;20026;-70
2021/05/08 07:11:28;;;;;;;9.77;4.22;;;;;;;19.43;56.47;100236.66;5013955;28;20030;-74
2021/05/08 07:13:54;;;;;;;8.15;4.43;;;;;;;19.34;56.51;100234.94;5013712;28;20030;-70
2021/05/08 07:16:19;;;;;;;10.13;4.20;;;;;;;19.51;56.01;100259.31;5013921;28;20037;-71
2021/05/08 07:18:45;;;;;;;7.05;4.13;;;;;;;19.84;57.08;100280.19;5013932;28;20034;-70
2021/05/08 07:21:10;;;;;;;8.73;4.07;;;;;;;19.77;56.01;100276.69;5014370;28;20037;-71
2021/05/08 07:23:35;;;;;;;6.00;3.95;;;;;;;20.02;56.68;100266.13;5014181;28;20033;-70
2021/05/08 07:26:01;;;;;;;9.80;4.40;;;;;;;20.14;54.14;100268.69;5014090;28;20026;-71
2021/05/08 07:28:28;;;;;;;9.50;4.90;;;;;;;20.20;55.02;100266.03;5014113;28;20060;-71
2021/05/08 07:30:55;;;;;;;7.60;4.53;;;;;;;20.33;53.51;100272.06;5013748;28;20089;-70
2021/05/08 07:33:22;;;;;;;7.80;4.63;;;;;;;20.47;53.47;100276.34;5013866;28;20044;-70
2021/05/08 07:35:48;;;;;;;9.15;4.50;;;;;;;20.40;52.02;100278.16;5013805;28;20030;-71
2021/05/08 07:38:15;;;;;;;8.57;4.47;;;;;;;20.55;50.80;100278.91;5013772;28;20057;-71
2021/05/08 07:40:41;;;;;;;7.80;4.50;;;;;;;20.49;49.89;100272.81;5013534;28;20063;-71
2021/05/08 07:43:08;;;;;;;7.47;4.65;;;;;;;20.59;52.22;100288.50;5013496;28;20034;-71
2021/05/08 07:45:34;;;;;;;5.80;4.50;;;;;;;20.42;50.68;100273.75;5002738;28;20038;-72
2021/05/08 07:48:00;;;;;;;6.25;4.47;;;;;;;20.57;52.04;100285.88;4994099;28;20034;-73
2021/05/08 07:50:27;;;;;;;9.88;4.43;;;;;;;20.51;51.62;100289.44;4993927;28;20176;-70
2021/05/08 07:52:53;;;;;;;11.00;4.88;;;;;;;20.33;54.07;100279.06;4993948;28;20062;-75
2021/05/08 07:55:18;;;;;;;9.82;4.22;;;;;;;20.28;51.42;100250.25;4993817;28;20108;-71
2021/05/08 07:57:44;;;;;;;8.88;4.82;;;;;;;20.51;52.40;100284.19;4991462;28;20047;-71
2021/05/08 08:00:11;;;;;;;12.32;5.70;;;;;;;20.60;54.70;100290.22;4994013;28;20023;-71
2021/05/08 08:02:37;;;;;;;12.05;5.43;;;;;;;20.89;54.26;100268.19;5001859;28;20037;-71
2021/05/08 08:05:04;;;;;;;13.20;5.00;;;;;;;21.09;52.40;100279.38;5013047;28;20029;-71
2021/05/08 08:07:29;;;;;;;8.45;4.20;;;;;;;21.23;52.37;100271.34;5013193;28;20032;-71
2021/05/08 08:09:55;;;;;;;9.95;4.18;;;;;;;21.47;53.39;100275.47;5013532;28;20037;-71
2021/05/08 08:12:21;;;;;;;9.02;3.85;;;;;;;21.44;54.04;100265.00;5013152;28;20420;-71
2021/05/08 08:14:47;;;;;;;10.25;3.83;;;;;;;21.15;50.94;100212.81;5013267;28;20112;-75
2021/05/08 08:17:12;;;;;;;6.95;3.78;;;;;;;21.48;49.27;100281.59;5010694;28;20096;-71
2021/05/08 08:19:38;;;;;;;11.75;4.60;;;;;;;21.29;50.17;100281.78;5007700;28;20457;-71
2021/05/08 08:22:03;;;;;;;8.38;3.88;;;;;;;21.12;48.47;100288.97;5012116;28;20022;-73
2021/05/08 08:24:29;;;;;;;8.05;3.83;;;;;;;21.25;50.20;100280.09;5012241;28;20075;-71
2021/05/08 08:26:54;;;;;;;9.55;3.92;;;;;;;21.22;48.29;100310.75;5012994;28;20408;-71
2021/05/08 08:29:20;;;;;;;11.07;4.97;;;;;;;21.20;48.82;100302.91;5012595;28;20464;-72
2021/05/08 08:31:47;;;;;;;8.80;4.22;;;;;;;20.82;49.44;100263.00;5011370;28;20021;-74
2021/05/08 08:34:12;;;;;;;6.38;4.07;;;;;;;21.04;49.07;100306.56;5005965;28;20034;-71
2021/05/08 08:36:38;;;;;;;8.05;3.90;;;;;;;20.67;48.39;100231.59;5006092;28;20038;-74
2021/05/08 08:39:05;;;;;;;6.97;4.40;;;;;;;20.99;48.82;100296.94;5010895;28;20026;-71
2021/05/08 08:41:30;;;;;;;7.63;4.22;;;;;;;20.88;51.65;100308.44;5004309;28;20536;-72
2021/05/08 08:43:56;;;;;;;10.43;4.20;;;;;;;20.96;48.43;100310.09;5006863;28;20034;-74
2021/05/08 08:46:22;;;;;;;12.60;3.92;;;;;;;21.10;46.56;100311.75;5005533;28;20026;-72
2021/05/08 08:48:49;;;;;;;12.77;3.50;;;;;;;20.96;45.91;100307.47;5004819;28;20417;-71
2021/05/08 08:51:15;;;;;;;5.60;3.80;;;;;;;20.75;46.62;100313.78;5006005;28;20056;-71
2021/05/08 08:53:40;;;;;;;12.90;4.13;;;;;;;20.94;49.46;100321.50;5006684;28;20033;-71
2021/05/08 08:56:06;;;;;;;6.85;4.13;;;;;;;20.99;47.17;100282.97;5005934;28;20032;-70
2021/05/08 08:58:37;;;;;;;5.10;3.70;;;;;;;21.34;46.92;100314.13;5007953;28;20026;-72
2021/05/08 09:01:05;;;;;;;6.20;3.13;;;;;;;21.47;46.05;100322.75;5009702;28;20030;-72
2021/05/08 09:03:32;;;;;;;5.57;3.40;;;;;;;21.43;46.55;100326.31;5011993;28;20022;-71
2021/05/08 09:06:01;;;;;;;4.57;3.38;;;;;;;21.42;45.56;100323.69;5006613;28;20087;-71
2021/05/08 09:08:29;;;;;;;6.25;3.85;;;;;;;21.44;47.25;100328.03;5008843;28;20157;-73
2021/05/08 09:11:17;;;;;;;8.45;3.45;;;;;;;21.73;45.25;100324.28;5009178;28;20128;-71
2021/05/08 09:13:43;;;;;;;5.18;3.17;;;;;;;21.87;44.17;100325.84;5007318;28;20049;-75
2021/05/08 09:16:08;;;;;;;4.25;3.17;;;;;;;21.94;44.32;100324.88;5009403;28;20037;-71
2021/05/08 09:18:38;;;;;;;8.95;3.08;;;;;;;21.71;43.09;100333.91;5009017;28;20504;-70
2021/05/08 09:21:09;;;;;;;3.85;2.85;;;;;;;21.70;42.82;100347.06;5009272;28;20034;-71
2021/05/08 09:23:41;;;;;;;6.45;3.40;;;;;;;21.78;42.33;100340.84;5003499;28;20030;-73
2021/05/08 09:26:14;;;;;;;4.55;3.08;;;;;;;21.77;44.09;100338.22;5006096;28;20118;-73
2021/05/08 09:28:41;;;;;;;6.82;2.85;;;;;;;21.54;42.99;100348.97;5005371;28;20112;-70
2021/05/08 09:31:12;;;;;;;5.10;2.65;;;;;;;21.60;43.46;100336.66;5009525;28;20041;-70
2021/05/08 09:33:37;;;;;;;10.93;3.10;;;;;;;21.37;42.70;100347.38;5005271;28;20080;-70
2021/05/08 09:36:07;;;;;;;5.55;2.90;;;;;;;21.43;43.63;100343.81;5000956;28;20030;-70
2021/05/08 09:38:41;;;;;;;7.85;3.17;;;;;;;21.29;42.98;100336.06;5006195;28;20038;-73
2021/05/08 09:41:13;;;;;;;5.30;2.63;;;;;;;21.24;44.99;100343.13;5010311;28;20116;-71
2021/05/08 09:43:40;;;;;;;6.63;2.55;;;;;;;21.05;43.22;100306.53;5007692;28;20491;-71
2021/05/08 09:46:07;;;;;;;7.03;2.70;;;;;;;21.48;41.90;100340.25;5003896;28;20022;-70
2021/05/08 09:48:38;;;;;;;9.15;2.60;;;;;;;21.49;43.57;100336.72;5004209;28;20053;-72
2021/05/08 09:51:16;;;;;;;6.30;2.72;;;;;;;21.84;40.45;100344.28;5002852;28;20018;-70
2021/05/08 09:53:42;;;;;;;4.47;2.50;;;;;;;21.71;40.27;100343.53;5006916;28;20026;-70
2021/05/08 09:56:36;;;;;;;4.10;2.83;;;;;;;22.00;41.13;100351.09;5003681;28;20034;-70
2021/05/08 09:59:24;;;;;;;5.22;2.63;;;;;;;21.99;43.84;100354.59;5006643;28;20053;-73
2021/05/08 10:02:10;;;;;;;9.02;2.40;;;;;;;22.26;42.93;100352.53;5005589;28;20038;-73
2021/05/08 10:04:43;;;;;;;5.90;2.92;;;;;;;22.20;39.00;100360.50;5009336;28;20033;-73
2021/05/08 10:07:15;;;;;;;2.92;2.20;;;;;;;22.07;38.98;100362.41;5010425;28;20100;-73
2021/05/08 10:09:46;;;;;;;5.45;2.17;;;;;;;22.12;40.04;100364.09;5007032;28;20022;-71
2021/05/08 10:12:16;;;;;;;8.10;2.50;;;;;;;22.03;41.06;100366.84;5006946;28;20030;-71
2021/05/08 10:14:47;;;;;;;3.65;1.73;;;;;;;22.03;41.66;100369.47;5007421;28;20485;-72
2021/05/08 10:17:15;;;;;;;2.25;1.50;;;;;;;21.95;39.73;100373.94;5010209;28;20022;-74
2021/05/08 10:19:45;;;;;;;2.75;1.90;;;;;;;22.01;39.49;100375.59;5007675;28;20036;-70
2021/05/08 10:22:32;;;;;;;13.52;1.98;;;;;;;21.88;41.07;100370.53;5010860;28;20022;-74
2021/05/08 10:25:04;;;;;;;8.10;1.70;;;;;;;21.57;39.13;100351.56;5005810;28;20038;-76
2021/05/08 10:27:30;;;;;;;1.85;1.50;;;;;;;21.64;38.56;100382.16;5010048;28;20046;-70
2021/05/08 10:29:56;;;;;;;2.85;1.83;;;;;;;21.62;38.98;100382.19;5007492;28;20069;-73
2021/05/08 10:32:22;;;;;;;7.43;1.70;;;;;;;21.71;40.10;100373.34;5007550;28;20433;-73
2021/05/08 10:35:04;;;;;;;5.85;1.60;;;;;;;21.62;39.03;100389.16;5005094;28;20757;-71
2021/05/08 10:37:31;;;;;;;2.40;1.55;;;;;;;21.63;40.31;100385.66;5006024;28;20061;-68
2021/05/08 10:40:15;;;;;;;3.63;1.75;;;;;;;21.28;39.09;100381.59;5009225;28;20424;-72
2021/05/08 10:42:44;;;;;;;4.30;1.73;;;;;;;21.01;39.34;100367.81;5008356;28;20025;-72
2021/05/08 10:45:12;;;;;;;5.40;1.77;;;;;;;20.75;39.74;100342.63;5010680;28;20041;-68
2021/05/08 10:47:53;;;;;;;4.00;1.30;;;;;;;20.89;39.81;100388.91;5010466;28;20480;-68
2021/05/08 10:50:25;;;;;;;4.38;1.20;;;;;;;20.82;38.04;100399.44;4989879;28;20102;-70
2021/05/08 10:53:03;;;;;;;4.00;1.13;;;;;;;20.90;39.44;100399.38;4988241;28;20042;-66
2021/05/08 10:55:41;;;;;;;3.63;1.10;;;;;;;20.65;38.89;100370.66;4989612;28;20046;-69
2021/05/08 11:00:57;;;;;;;1.95;1.20;;;;;;;20.63;39.64;100395.16;4991653;28;20034;-73
2021/05/08 11:03:23;;;;;;;1.52;0.98;;;;;;;20.47;38.60;100404.84;4991234;28;20045;-73
2021/05/08 11:05:56;;;;;;;5.00;1.10;;;;;;;20.26;38.99;100385.72;4990443;28;20129;-73
2021/05/08 11:08:24;;;;;;;5.60;1.27;;;;;;;20.19;39.74;100386.63;4975466;28;20451;-71
2021/05/08 11:10:56;;;;;;;7.85;1.75;;;;;;;20.10;38.81;100376.16;4996917;28;20608;-73
2021/05/08 11:13:24;;;;;;;2.53;1.20;;;;;;;19.96;39.16;100366.63;5008107;28;20173;-72
2021/05/08 11:15:49;;;;;;;11.60;1.65;;;;;;;20.31;39.25;100394.44;5006416;28;20512;-71
2021/05/08 11:18:30;;;;;;;2.85;1.30;;;;;;;20.60;39.96;100403.91;5011745;28;20022;-78
2021/05/08 11:20:56;;;;;;;5.53;1.17;;;;;;;20.68;40.27;100360.13;5000674;28;20762;-71
2021/05/08 11:23:22;;;;;;;4.35;1.25;;;;;;;21.09;37.93;100389.59;5011534;28;20500;-70
2021/05/08 11:25:47;;;;;;;2.08;1.15;;;;;;;21.06;40.51;100394.91;5010671;28;20041;-70